Carteret, New Jersey
Current Conditions -  °F | °C
As of 3:35 PM on Friday 31 Oct 2014 (Local Time) from KLDJ Reporting Station
Overcast Overcast  
Wind Chill: 56°   Ceiling: 4400
Heat Index: 56°   Visibility: 10mi
Dew Point: 40°   Wind: 6mph
Humidity: 54%   Direction: 10°N
Pressure: 29.91"   Gusts: NA
Location:  40.58°N, 74.22°W
Report Text: KLDJ 311935Z AUTO 01005KT 10SM OVC044 14/05 A2991 RMK AO2 T01360045
Loading
Personal Weather Stations






























Interactive Weather Map
Tropical Storm Tracking
New forecast layout! Learn more

10-Day Weather Forecast

Advertisements
Track Severe Weather on mobile